Terminal Aerodrome Forecast
Issued by NWS Green Bay, WI

Home | Current Version | Previous Version | Text Only | Print | Product List | Glossary Off
Versions: 1 2 3 4 5 6 7 8 9 10 11 12 13 14 15 16 17 18 19 20 21 22 23 24 25 26 27 28 29 30 31

000
FTUS43 KGRB 181700
TAFGRB
TAF
KGRB 181720Z 1818/1918 05017G24KT P6SM SCT200
     FM190100 07009KT P6SM BKN200
     FM190800 11009KT P6SM BKN070 BKN150 WS013/12035KT
     FM191400 11012G20KT P6SM BKN070 OVC150=

USA.gov is the U.S. government's official web portal to all federal, state and local government web resources and services.